Time;durP1;ratioP1;P1;durP2;ratioP2;P2;SDS_P1;SDS_P2;PMS_P1;PMS_P2;Temp;Humidity;BMP_temperature;BMP_pressure;BME280_temperature;BME280_humidity;BME280_pressure;Samples;Min_cycle;Max_cycle;Signal;HPM_P1;HPM_P2
2023/04/11 00:02:11;;;;;;;0.50;0.50;;;11.90;99.90;;;;;;4401858;32;20122;-76
2023/04/11 00:04:37;;;;;;;0.90;0.75;;;11.80;99.90;;;;;;4401643;32;20144;-76
2023/04/11 00:07:04;;;;;;;0.62;0.62;;;11.80;99.90;;;;;;4404032;32;20448;-77
2023/04/11 00:09:30;;;;;;;0.40;0.40;;;11.80;99.90;;;;;;4399105;32;20069;-77
2023/04/11 00:11:56;;;;;;;1.20;0.95;;;11.80;99.90;;;;;;4403058;32;20303;-76
2023/04/11 00:14:21;;;;;;;1.33;0.73;;;11.80;99.90;;;;;;4403627;32;20058;-77
2023/04/11 00:16:48;;;;;;;0.50;0.50;;;11.80;99.90;;;;;;4402889;32;20066;-78
2023/04/11 00:19:15;;;;;;;0.85;0.62;;;11.70;99.90;;;;;;4400245;32;20608;-77
2023/04/11 00:21:42;;;;;;;0.82;0.80;;;11.70;99.90;;;;;;4400521;32;20082;-76
2023/04/11 00:24:08;;;;;;;0.88;0.60;;;11.60;99.90;;;;;;4401675;32;20089;-77
2023/04/11 00:26:34;;;;;;;0.45;0.45;;;11.60;99.90;;;;;;4405365;32;20471;-76
2023/04/11 00:28:59;;;;;;;0.65;0.60;;;11.60;99.90;;;;;;4403259;32;20057;-77
2023/04/11 00:31:25;;;;;;;0.30;0.30;;;11.60;99.90;;;;;;4404845;32;20131;-77
2023/04/11 00:33:50;;;;;;;1.85;0.62;;;11.60;99.90;;;;;;4406507;32;20090;-76
2023/04/11 00:36:15;;;;;;;0.75;0.52;;;11.50;99.90;;;;;;4404135;32;20077;-77
2023/04/11 00:38:41;;;;;;;0.75;0.70;;;11.50;99.90;;;;;;4402760;32;20141;-77
2023/04/11 00:41:07;;;;;;;0.73;0.73;;;11.50;99.90;;;;;;4401393;32;20490;-76
2023/04/11 00:43:33;;;;;;;0.35;0.35;;;11.50;99.90;;;;;;4402513;32;20475;-76
2023/04/11 00:45:59;;;;;;;4.03;0.80;;;11.50;99.90;;;;;;4406391;32;20070;-76
2023/04/11 00:48:27;;;;;;;2.03;0.93;;;11.40;99.90;;;;;;4401904;32;20146;-76
2023/04/11 00:50:53;;;;;;;0.32;0.32;;;11.30;99.90;;;;;;4389969;32;20082;-76
2023/04/11 00:53:19;;;;;;;0.70;0.70;;;11.30;99.90;;;;;;4403035;32;20070;-76
2023/04/11 00:55:45;;;;;;;1.00;0.75;;;11.30;99.90;;;;;;4404050;32;20077;-76
2023/04/11 00:58:11;;;;;;;0.75;0.75;;;11.30;99.90;;;;;;4405495;32;20098;-77
2023/04/11 01:00:37;;;;;;;0.57;0.57;;;11.30;99.90;;;;;;4401529;32;20085;-77
2023/04/11 01:03:03;;;;;;;0.90;0.90;;;11.30;99.90;;;;;;4404149;32;20079;-77
2023/04/11 01:05:30;;;;;;;1.85;1.08;;;11.20;99.90;;;;;;4401383;32;20113;-77
2023/04/11 01:07:56;;;;;;;0.68;0.68;;;11.20;99.90;;;;;;4406560;32;20065;-77
2023/04/11 01:10:23;;;;;;;0.62;0.50;;;11.10;99.90;;;;;;4401538;32;20450;-77
2023/04/11 01:12:50;;;;;;;1.95;0.95;;;11.10;99.90;;;;;;4404896;32;20675;-75
2023/04/11 01:15:15;;;;;;;1.08;0.98;;;11.10;99.90;;;;;;4402087;32;20062;-77
2023/04/11 01:17:41;;;;;;;0.98;0.73;;;11.20;99.90;;;;;;4403362;32;20442;-76
2023/04/11 01:20:08;;;;;;;0.60;0.60;;;11.20;99.90;;;;;;4400046;32;20594;-76
2023/04/11 01:22:36;;;;;;;0.62;0.62;;;11.10;99.90;;;;;;4402384;32;20549;-77
2023/04/11 01:25:02;;;;;;;0.55;0.55;;;11.20;99.90;;;;;;4402624;32;20086;-76
2023/04/11 01:27:28;;;;;;;0.60;0.60;;;11.20;99.90;;;;;;4404525;32;20403;-76
2023/04/11 01:29:53;;;;;;;2.05;1.10;;;11.10;99.90;;;;;;4402413;32;20069;-77
2023/04/11 01:32:19;;;;;;;1.00;0.77;;;11.20;99.90;;;;;;4404035;32;20498;-76
2023/04/11 01:34:47;;;;;;;2.55;0.50;;;11.10;99.90;;;;;;4400329;32;20158;-77
2023/04/11 01:37:12;;;;;;;4.22;0.60;;;11.10;99.90;;;;;;4405061;32;20203;-76
2023/04/11 01:39:38;;;;;;;0.43;0.43;;;11.10;99.90;;;;;;4404772;32;20081;-76
2023/04/11 01:42:04;;;;;;;0.73;0.73;;;11.10;99.90;;;;;;4404573;32;20502;-76
2023/04/11 01:44:32;;;;;;;0.65;0.65;;;11.10;99.90;;;;;;4402570;32;20475;-76
2023/04/11 01:46:58;;;;;;;0.75;0.70;;;11.10;99.90;;;;;;4402783;32;20089;-77
2023/04/11 01:49:25;;;;;;;2.42;0.80;;;11.10;99.90;;;;;;4404178;32;20097;-76
2023/04/11 01:51:50;;;;;;;0.77;0.68;;;11.10;99.90;;;;;;4404450;32;20062;-77
2023/04/11 01:54:16;;;;;;;0.37;0.37;;;11.10;99.90;;;;;;4403723;32;20086;-77
2023/04/11 01:56:41;;;;;;;3.97;0.68;;;11.10;99.90;;;;;;4405871;32;20120;-76
2023/04/11 01:59:08;;;;;;;1.05;0.95;;;11.10;99.90;;;;;;4406412;32;20094;-77
2023/04/11 02:01:34;;;;;;;1.40;1.17;;;11.10;99.90;;;;;;4402902;32;20066;-76
2023/04/11 02:04:00;;;;;;;3.58;1.37;;;11.00;99.90;;;;;;4405484;32;20459;-77
2023/04/11 02:06:26;;;;;;;0.75;0.75;;;11.10;99.90;;;;;;4404488;32;20107;-76
2023/04/11 02:08:52;;;;;;;0.43;0.43;;;11.10;99.90;;;;;;4403077;32;20069;-76
2023/04/11 02:11:17;;;;;;;3.60;0.68;;;11.00;99.90;;;;;;4397948;32;20164;-76
2023/04/11 02:13:43;;;;;;;0.65;0.65;;;11.10;99.90;;;;;;4402969;32;20087;-77
2023/04/11 02:16:13;;;;;;;0.80;0.68;;;11.10;99.90;;;;;;4402328;32;20069;-77
2023/04/11 02:18:41;;;;;;;0.60;0.60;;;11.10;99.90;;;;;;4402173;32;20577;-77
2023/04/11 02:21:07;;;;;;;0.98;0.85;;;11.10;99.90;;;;;;4408521;32;20100;-77
2023/04/11 02:23:33;;;;;;;4.30;1.75;;;11.10;99.90;;;;;;4403125;32;20074;-77
2023/04/11 02:26:00;;;;;;;0.88;0.65;;;11.10;99.90;;;;;;4403142;32;20074;-77
2023/04/11 02:28:25;;;;;;;0.45;0.45;;;11.10;99.90;;;;;;4405215;32;20082;-77
2023/04/11 02:30:51;;;;;;;0.50;0.50;;;11.00;99.90;;;;;;4404668;32;20073;-75
2023/04/11 02:33:16;;;;;;;0.45;0.45;;;11.00;99.90;;;;;;4405239;32;20113;-77
2023/04/11 02:35:42;;;;;;;1.02;0.47;;;10.90;99.90;;;;;;4404306;32;20078;-77
2023/04/11 02:38:07;;;;;;;0.30;0.30;;;10.90;99.90;;;;;;4402927;32;20554;-77
2023/04/11 02:40:33;;;;;;;0.30;0.30;;;11.00;99.90;;;;;;4402988;32;21263;-78
2023/04/11 02:42:59;;;;;;;0.68;0.68;;;11.00;99.90;;;;;;4404603;32;20094;-77
2023/04/11 02:45:25;;;;;;;1.42;0.95;;;11.00;99.90;;;;;;4402210;32;20082;-78
2023/04/11 02:47:50;;;;;;;0.60;0.60;;;11.00;99.90;;;;;;4404285;32;20533;-77
2023/04/11 02:50:16;;;;;;;0.50;0.50;;;10.90;99.90;;;;;;4402617;32;20066;-77
2023/04/11 02:52:43;;;;;;;0.40;0.40;;;11.00;99.90;;;;;;4403150;32;20101;-77
2023/04/11 02:55:09;;;;;;;0.47;0.47;;;11.00;99.90;;;;;;4404440;32;20466;-77
2023/04/11 02:57:35;;;;;;;0.47;0.47;;;11.00;99.90;;;;;;4404057;32;20086;-78
2023/04/11 03:00:00;;;;;;;0.60;0.60;;;11.00;99.90;;;;;;4401422;32;20078;-77
2023/04/11 03:02:28;;;;;;;0.50;0.50;;;11.00;99.90;;;;;;4406731;32;20132;-77
2023/04/11 03:04:54;;;;;;;0.60;0.60;;;11.00;99.90;;;;;;4401420;32;20082;-77
2023/04/11 03:07:19;;;;;;;0.65;0.65;;;11.00;99.90;;;;;;4403209;32;20434;-78
2023/04/11 03:09:45;;;;;;;1.02;0.73;;;11.00;99.90;;;;;;4402671;32;20090;-77
2023/04/11 03:12:10;;;;;;;2.40;1.08;;;11.00;99.90;;;;;;4404349;32;20066;-78
2023/04/11 03:14:36;;;;;;;0.40;0.40;;;10.90;99.90;;;;;;4402905;32;20082;-77
2023/04/11 03:17:01;;;;;;;4.75;0.65;;;10.90;99.90;;;;;;4403688;32;20079;-77
2023/04/11 03:19:27;;;;;;;1.77;1.37;;;10.90;99.90;;;;;;4400643;32;20181;-77
2023/04/11 03:21:52;;;;;;;0.47;0.45;;;10.90;99.90;;;;;;4401571;32;20546;-77
2023/04/11 03:24:18;;;;;;;0.68;0.68;;;10.90;99.90;;;;;;4398835;32;20089;-77
2023/04/11 03:26:43;;;;;;;13.95;2.95;;;10.90;99.90;;;;;;4403728;32;20085;-77
2023/04/11 03:29:09;;;;;;;1.65;1.05;;;10.90;99.90;;;;;;4404629;32;20127;-76
2023/04/11 03:31:34;;;;;;;0.65;0.65;;;10.90;99.90;;;;;;4401668;32;20086;-77
2023/04/11 03:34:00;;;;;;;0.37;0.37;;;11.00;99.90;;;;;;4400854;32;20082;-77
2023/04/11 03:36:25;;;;;;;0.45;0.45;;;10.90;99.90;;;;;;4400275;32;20201;-77
2023/04/11 03:38:51;;;;;;;0.40;0.40;;;11.00;99.90;;;;;;4401025;32;20422;-77
2023/04/11 03:41:18;;;;;;;0.60;0.60;;;10.90;99.90;;;;;;4402295;32;20103;-77
2023/04/11 03:43:44;;;;;;;0.60;0.43;;;10.90;99.90;;;;;;4401918;32;20152;-76
2023/04/11 03:46:10;;;;;;;0.47;0.45;;;10.80;99.90;;;;;;4402269;32;20096;-76
2023/04/11 03:48:36;;;;;;;0.80;0.60;;;10.90;99.90;;;;;;4401272;32;20074;-77
2023/04/11 03:51:02;;;;;;;0.50;0.50;;;10.90;99.90;;;;;;4405523;32;20066;-76
2023/04/11 03:53:28;;;;;;;0.60;0.60;;;10.90;99.90;;;;;;4401285;32;20423;-77
2023/04/11 03:55:54;;;;;;;0.40;0.40;;;11.00;99.90;;;;;;4405696;32;20201;-77
2023/04/11 03:58:20;;;;;;;0.50;0.50;;;11.00;99.90;;;;;;4402541;32;20126;-77
2023/04/11 04:00:46;;;;;;;0.85;0.85;;;11.00;99.90;;;;;;4401844;32;20062;-77
2023/04/11 04:03:12;;;;;;;2.08;0.70;;;11.10;99.90;;;;;;4405854;32;20505;-76
2023/04/11 04:05:40;;;;;;;3.03;0.90;;;11.10;99.90;;;;;;4400377;32;20188;-77
2023/04/11 04:08:06;;;;;;;0.52;0.52;;;11.10;99.90;;;;;;4402325;32;20371;-77
2023/04/11 04:10:32;;;;;;;0.57;0.57;;;11.20;99.90;;;;;;4402524;32;20070;-76
2023/04/11 04:12:57;;;;;;;0.43;0.43;;;11.10;99.90;;;;;;4402261;32;20094;-77
2023/04/11 04:15:23;;;;;;;1.75;0.80;;;11.10;99.90;;;;;;4401552;32;20081;-77
2023/04/11 04:17:49;;;;;;;0.80;0.75;;;11.10;99.90;;;;;;4405254;32;20074;-76
2023/04/11 04:20:15;;;;;;;0.30;0.30;;;11.10;99.90;;;;;;4402986;32;20443;-77
2023/04/11 04:22:40;;;;;;;0.52;0.52;;;11.10;99.90;;;;;;4404644;32;20078;-78
2023/04/11 04:25:08;;;;;;;3.20;0.50;;;11.00;99.90;;;;;;4403820;32;20106;-77
2023/04/11 04:27:33;;;;;;;0.30;0.30;;;11.00;99.90;;;;;;4402159;32;20070;-75
2023/04/11 04:29:59;;;;;;;0.75;0.60;;;11.00;99.90;;;;;;4399567;32;20062;-75
2023/04/11 04:32:27;;;;;;;0.77;0.77;;;10.70;99.90;;;;;;4400372;32;20102;-77
2023/04/11 04:34:54;;;;;;;0.40;0.40;;;10.60;99.90;;;;;;4400967;32;20474;-75
2023/04/11 04:37:21;;;;;;;1.10;0.88;;;10.40;99.90;;;;;;4401582;32;20439;-77
2023/04/11 04:39:52;;;;;;;0.47;0.47;;;10.30;99.90;;;;;;4400092;32;20077;-77
2023/04/11 04:42:22;;;;;;;1.17;0.60;;;10.20;99.90;;;;;;4401380;32;20606;-77
2023/04/11 04:44:48;;;;;;;0.52;0.52;;;10.10;99.90;;;;;;4401055;32;20069;-77
2023/04/11 04:47:15;;;;;;;0.60;0.60;;;10.00;99.90;;;;;;4400977;32;20303;-77
2023/04/11 04:49:41;;;;;;;1.75;0.62;;;9.90;99.90;;;;;;4400402;32;20074;-75
2023/04/11 04:52:06;;;;;;;0.40;0.40;;;9.90;99.90;;;;;;4398780;32;20574;-78
2023/04/11 04:54:32;;;;;;;1.00;1.00;;;9.90;99.90;;;;;;4400043;32;20105;-77
2023/04/11 04:56:57;;;;;;;0.40;0.40;;;9.80;99.90;;;;;;4400725;32;20094;-78
2023/04/11 04:59:23;;;;;;;1.02;0.60;;;9.60;99.90;;;;;;4403308;32;20139;-77
2023/04/11 05:01:50;;;;;;;0.62;0.62;;;9.60;99.90;;;;;;4400332;32;20510;-75
2023/04/11 05:04:16;;;;;;;0.62;0.62;;;9.70;99.90;;;;;;4401194;32;20128;-78
2023/04/11 05:06:41;;;;;;;0.57;0.57;;;9.60;99.90;;;;;;4400595;32;20085;-76
2023/04/11 05:09:07;;;;;;;0.60;0.60;;;9.70;99.90;;;;;;4398524;32;20201;-76
2023/04/11 05:11:33;;;;;;;0.40;0.40;;;9.50;99.90;;;;;;4404881;32;20080;-78
2023/04/11 05:13:58;;;;;;;0.65;0.60;;;9.50;99.90;;;;;;4402392;32;20140;-77
2023/04/11 05:16:24;;;;;;;0.47;0.47;;;9.40;99.90;;;;;;4405283;32;20081;-77
2023/04/11 05:18:50;;;;;;;0.50;0.50;;;9.40;99.90;;;;;;4403062;32;20063;-77
2023/04/11 05:21:15;;;;;;;0.73;0.70;;;9.40;99.90;;;;;;4404450;32;20066;-77
2023/04/11 05:23:42;;;;;;;13.52;2.80;;;9.40;99.90;;;;;;4403608;32;20593;-78
2023/04/11 05:26:08;;;;;;;0.50;0.50;;;9.40;99.90;;;;;;4405772;32;20089;-77
2023/04/11 05:28:35;;;;;;;0.60;0.60;;;9.40;99.90;;;;;;4403728;32;20090;-77
2023/04/11 05:31:01;;;;;;;0.80;0.43;;;9.40;99.90;;;;;;4403634;32;20066;-77
2023/04/11 05:33:26;;;;;;;0.88;0.55;;;9.50;99.90;;;;;;4405343;32;20079;-77
2023/04/11 05:35:52;;;;;;;1.62;0.82;;;9.40;99.90;;;;;;4403249;32;20546;-77
2023/04/11 05:38:18;;;;;;;2.58;0.75;;;9.40;99.90;;;;;;4404391;32;20075;-78
2023/04/11 05:40:44;;;;;;;0.62;0.62;;;9.40;99.90;;;;;;4402661;32;20073;-78
2023/04/11 05:43:13;;;;;;;0.70;0.70;;;9.40;99.90;;;;;;4405283;32;20098;-77
2023/04/11 05:45:40;;;;;;;0.47;0.47;;;9.40;99.90;;;;;;4404380;32;20501;-78
2023/04/11 05:48:07;;;;;;;0.52;0.52;;;9.40;99.90;;;;;;4403632;32;20182;-77
2023/04/11 05:50:33;;;;;;;1.95;1.12;;;9.30;99.90;;;;;;4405530;32;20070;-77
2023/04/11 05:52:59;;;;;;;2.17;0.80;;;9.30;99.90;;;;;;4402326;32;20104;-77
2023/04/11 05:55:24;;;;;;;2.12;0.60;;;9.30;99.90;;;;;;4403886;32;20125;-77
2023/04/11 05:57:50;;;;;;;0.57;0.57;;;9.40;99.90;;;;;;4402494;32;20062;-78
2023/04/11 06:00:17;;;;;;;1.05;0.68;;;9.30;99.90;;;;;;4403167;32;20093;-77
2023/04/11 06:02:43;;;;;;;3.12;1.12;;;9.40;99.90;;;;;;4403142;32;20120;-77
2023/04/11 06:05:10;;;;;;;2.22;0.93;;;9.30;99.90;;;;;;4403838;32;20105;-78
2023/04/11 06:07:38;;;;;;;0.60;0.60;;;9.40;99.90;;;;;;4404567;32;20595;-77
2023/04/11 06:10:05;;;;;;;0.35;0.35;;;9.40;99.90;;;;;;4402855;32;20102;-77
2023/04/11 06:12:31;;;;;;;1.52;1.08;;;9.40;99.90;;;;;;4402951;32;20066;-77
2023/04/11 06:14:57;;;;;;;0.60;0.60;;;9.40;99.90;;;;;;4404274;32;20086;-77
2023/04/11 06:17:23;;;;;;;4.10;0.70;;;9.50;99.90;;;;;;4406058;32;20086;-78
2023/04/11 06:19:48;;;;;;;0.40;0.40;;;9.60;99.90;;;;;;4402876;32;20089;-78
2023/04/11 06:22:14;;;;;;;1.08;0.98;;;9.60;99.90;;;;;;4404408;32;20438;-77
2023/04/11 06:24:40;;;;;;;0.68;0.68;;;9.50;99.90;;;;;;4404259;32;20081;-77
2023/04/11 06:27:08;;;;;;;0.98;0.75;;;9.50;99.90;;;;;;4404110;32;20082;-76
2023/04/11 06:29:34;;;;;;;0.50;0.50;;;9.50;99.90;;;;;;4404311;32;20061;-77
2023/04/11 06:32:00;;;;;;;0.73;0.57;;;9.50;99.90;;;;;;4405547;32;20094;-78
2023/04/11 06:34:26;;;;;;;0.30;0.30;;;9.60;99.90;;;;;;4401825;32;20073;-77
2023/04/11 06:36:51;;;;;;;0.90;0.85;;;9.60;99.90;;;;;;4404129;32;20444;-77
2023/04/11 06:39:17;;;;;;;2.70;1.10;;;9.60;99.90;;;;;;4402501;32;20583;-76
2023/04/11 06:41:42;;;;;;;0.77;0.77;;;9.50;99.90;;;;;;4404849;32;20419;-77
2023/04/11 06:44:08;;;;;;;3.12;0.75;;;9.60;99.90;;;;;;4405184;32;20108;-76
2023/04/11 06:46:33;;;;;;;1.75;1.05;;;9.50;99.90;;;;;;4401730;32;20074;-76
2023/04/11 06:48:59;;;;;;;0.50;0.50;;;9.50;99.90;;;;;;4403466;32;20078;-77
2023/04/11 06:51:25;;;;;;;0.30;0.30;;;9.50;99.90;;;;;;4403707;32;20106;-78
2023/04/11 06:53:51;;;;;;;3.22;1.37;;;9.60;99.90;;;;;;4404370;32;20176;-78
2023/04/11 06:56:16;;;;;;;0.62;0.60;;;9.70;99.90;;;;;;4403541;32;20110;-77
2023/04/11 06:58:42;;;;;;;0.62;0.60;;;9.70;99.90;;;;;;4403745;32;20144;-77
2023/04/11 07:01:08;;;;;;;0.82;0.57;;;9.70;99.90;;;;;;4402506;32;20521;-77
2023/04/11 07:03:33;;;;;;;0.40;0.40;;;9.70;99.90;;;;;;4404550;32;20094;-77
2023/04/11 07:05:59;;;;;;;0.70;0.70;;;9.70;99.90;;;;;;4400706;32;20082;-78
2023/04/11 07:08:25;;;;;;;3.42;0.88;;;9.70;99.90;;;;;;4402208;32;20412;-78
2023/04/11 07:10:50;;;;;;;0.65;0.65;;;9.70;99.90;;;;;;4403504;32;20161;-77
2023/04/11 07:13:16;;;;;;;2.30;1.20;;;9.80;99.90;;;;;;4399850;32;20128;-77
2023/04/11 07:15:41;;;;;;;1.00;0.77;;;9.90;99.90;;;;;;4403656;32;20486;-77
2023/04/11 07:18:08;;;;;;;3.83;1.92;;;10.00;99.90;;;;;;4403400;32;20874;-77
2023/04/11 07:20:34;;;;;;;2.92;0.70;;;9.80;99.90;;;;;;4402444;32;20141;-76
2023/04/11 07:23:02;;;;;;;1.10;0.70;;;9.90;99.90;;;;;;4402658;32;20522;-77
2023/04/11 07:25:29;;;;;;;0.60;0.60;;;9.90;99.90;;;;;;4403227;32;20078;-77
2023/04/11 07:27:56;;;;;;;0.35;0.35;;;9.90;99.90;;;;;;4406047;32;20090;-77
2023/04/11 07:30:22;;;;;;;1.23;0.73;;;10.00;99.90;;;;;;4405721;32;20094;-77
2023/04/11 07:32:47;;;;;;;0.40;0.40;;;10.00;99.90;;;;;;4402727;32;20591;-77
2023/04/11 07:35:13;;;;;;;0.37;0.37;;;10.10;99.90;;;;;;4404849;32;20070;-77
2023/04/11 07:37:38;;;;;;;0.90;0.82;;;10.10;99.90;;;;;;4402940;32;20651;-77
2023/04/11 07:40:08;;;;;;;0.45;0.45;;;10.20;99.90;;;;;;4405583;32;20061;-76
2023/04/11 07:42:34;;;;;;;1.58;1.20;;;10.10;99.90;;;;;;4402100;32;20492;-77
2023/04/11 07:44:59;;;;;;;0.32;0.32;;;10.20;99.90;;;;;;4403213;32;20117;-77
2023/04/11 07:47:25;;;;;;;2.70;1.15;;;10.20;99.90;;;;;;4404232;32;20137;-77
2023/04/11 07:49:50;;;;;;;0.73;0.60;;;10.30;99.90;;;;;;4404244;32;20154;-77
2023/04/11 07:52:16;;;;;;;0.52;0.52;;;10.30;99.90;;;;;;4401254;32;20091;-77
2023/04/11 07:54:41;;;;;;;3.70;1.87;;;10.30;99.90;;;;;;4402642;32;20467;-76
2023/04/11 07:57:07;;;;;;;0.25;0.25;;;10.20;99.90;;;;;;4402101;32;20070;-78
2023/04/11 07:59:33;;;;;;;0.50;0.50;;;10.10;99.90;;;;;;4402582;32;20474;-77
2023/04/11 08:01:59;;;;;;;1.17;0.60;;;10.20;99.90;;;;;;4387930;32;20077;-78
2023/04/11 08:04:35;;;;;;;0.40;0.40;;;10.20;99.90;;;;;;4404319;32;20136;-76
2023/04/11 08:07:01;;;;;;;2.37;0.70;;;10.10;99.90;;;;;;4402084;32;20066;-76
2023/04/11 08:09:26;;;;;;;2.05;0.90;;;10.20;99.90;;;;;;4403532;32;20151;-77
2023/04/11 08:11:52;;;;;;;0.62;0.62;;;10.20;99.90;;;;;;4403100;32;20521;-77
2023/04/11 08:14:18;;;;;;;1.30;0.95;;;10.30;99.90;;;;;;4400626;32;20106;-76
2023/04/11 08:16:44;;;;;;;0.50;0.50;;;10.30;99.90;;;;;;4405853;32;20460;-77
2023/04/11 08:19:10;;;;;;;1.33;0.57;;;10.30;99.90;;;;;;4403924;32;20081;-76
2023/04/11 08:21:36;;;;;;;0.43;0.43;;;10.30;99.90;;;;;;4404250;32;20501;-76
2023/04/11 08:24:02;;;;;;;0.50;0.50;;;10.30;99.90;;;;;;4401899;32;20069;-76
2023/04/11 08:26:28;;;;;;;12.40;1.20;;;10.20;99.90;;;;;;4402666;32;20094;-76
2023/04/11 08:28:54;;;;;;;0.43;0.43;;;10.20;99.90;;;;;;4404118;32;20081;-77
2023/04/11 08:31:19;;;;;;;0.40;0.40;;;10.10;99.90;;;;;;4403343;32;20070;-77
2023/04/11 08:33:45;;;;;;;4.37;0.90;;;10.00;99.90;;;;;;4398796;32;20443;-76
2023/04/11 08:36:11;;;;;;;1.83;0.68;;;10.00;99.90;;;;;;4402020;32;20094;-77
2023/04/11 08:38:38;;;;;;;0.55;0.43;;;10.00;99.90;;;;;;4401380;32;20089;-76
2023/04/11 08:41:03;;;;;;;0.40;0.40;;;10.00;99.90;;;;;;4402584;32;20545;-77
2023/04/11 08:43:34;;;;;;;0.68;0.43;;;9.90;99.90;;;;;;4402521;32;20210;-78
2023/04/11 08:46:01;;;;;;;;;;;9.90;99.90;;;;;;4401543;32;20093;-78
2023/04/11 08:48:27;;;;;;;0.30;0.30;;;9.90;99.90;;;;;;4405759;32;19964;-78
2023/04/11 08:50:52;;;;;;;0.40;0.40;;;9.80;99.90;;;;;;4403602;32;20073;-78
2023/04/11 08:53:21;;;;;;;0.40;0.40;;;9.80;99.90;;;;;;4405291;32;20086;-77
2023/04/11 08:55:47;;;;;;;5.18;0.60;;;9.80;99.90;;;;;;4402533;32;20585;-78
2023/04/11 08:58:13;;;;;;;0.40;0.40;;;9.90;99.90;;;;;;4403803;32;20086;-78
2023/04/11 09:00:39;;;;;;;1.50;0.55;;;10.00;99.90;;;;;;4405813;32;20509;-77
2023/04/11 09:03:06;;;;;;;0.55;0.50;;;10.10;99.90;;;;;;4402471;32;20061;-78
2023/04/11 09:05:34;;;;;;;0.37;0.37;;;10.10;99.90;;;;;;4401119;32;20077;-77
2023/04/11 09:08:02;;;;;;;0.30;0.30;;;10.10;99.90;;;;;;4403071;32;20509;-77
2023/04/11 09:10:27;;;;;;;0.37;0.37;;;10.20;99.90;;;;;;4401387;32;20081;-78
2023/04/11 09:12:54;;;;;;;2.03;1.15;;;10.40;99.90;;;;;;4404684;32;20105;-78
2023/04/11 09:15:22;;;;;;;0.30;0.30;;;10.40;99.90;;;;;;4404924;32;20062;-77
2023/04/11 09:17:48;;;;;;;0.85;0.68;;;10.50;99.90;;;;;;4404092;32;20075;-77
2023/04/11 09:20:19;;;;;;;3.83;0.50;;;10.70;99.90;;;;;;4403992;32;20568;-78
2023/04/11 09:22:47;;;;;;;3.65;1.50;;;10.70;99.90;;;;;;4403303;32;20068;-78
2023/04/11 09:25:12;;;;;;;0.80;0.37;;;10.80;99.90;;;;;;4394316;32;20097;-78
2023/04/11 09:27:38;;;;;;;0.30;0.30;;;10.80;99.90;;;;;;4396335;32;20083;-77
2023/04/11 09:30:04;;;;;;;0.30;0.30;;;10.90;99.90;;;;;;4404364;32;20146;-78
2023/04/11 09:32:32;;;;;;;1.58;0.85;;;11.00;99.90;;;;;;4403815;32;20553;-78
2023/04/11 09:35:08;;;;;;;0.32;0.32;;;11.20;99.90;;;;;;4401902;32;20094;-77
2023/04/11 09:37:55;;;;;;;0.30;0.30;;;11.40;99.90;;;;;;4403296;32;20577;-76
2023/04/11 09:40:23;;;;;;;0.30;0.30;;;11.50;99.90;;;;;;4403812;32;20580;-76
2023/04/11 09:42:56;;;;;;;0.43;0.43;;;11.50;99.90;;;;;;4402736;32;20074;-78
2023/04/11 09:45:23;;;;;;;0.40;0.40;;;11.60;99.90;;;;;;4404448;32;20148;-77
2023/04/11 09:47:50;;;;;;;0.50;0.50;;;11.50;99.90;;;;;;4404344;32;20166;-77
2023/04/11 09:50:16;;;;;;;0.40;0.40;;;11.50;99.90;;;;;;4404220;32;20086;-77
2023/04/11 09:52:43;;;;;;;0.65;0.43;;;11.50;99.90;;;;;;4404235;32;20062;-77
2023/04/11 09:55:11;;;;;;;0.30;0.30;;;11.50;99.90;;;;;;4405248;32;20082;-75
2023/04/11 09:57:39;;;;;;;3.20;1.77;;;11.40;99.90;;;;;;4403121;32;20129;-76
2023/04/11 10:00:13;;;;;;;0.52;0.52;;;11.50;99.90;;;;;;4403003;32;20125;-77
2023/04/11 10:02:40;;;;;;;0.73;0.73;;;11.40;99.90;;;;;;4405343;32;20114;-78
2023/04/11 10:05:07;;;;;;;0.80;0.50;;;11.40;99.90;;;;;;4403914;32;20514;-77
2023/04/11 10:07:35;;;;;;;0.45;0.45;;;11.60;99.90;;;;;;4405340;32;20504;-78
2023/04/11 10:10:02;;;;;;;1.33;0.60;;;11.80;99.90;;;;;;4402624;32;20090;-77
2023/04/11 10:12:30;;;;;;;0.30;0.30;;;12.30;99.90;;;;;;4401251;32;20082;-76
2023/04/11 10:14:56;;;;;;;0.30;0.30;;;12.70;99.90;;;;;;4403632;32;20105;-77
2023/04/11 10:17:21;;;;;;;0.50;0.50;;;12.70;99.90;;;;;;4403935;32;20361;-77
2023/04/11 10:19:49;;;;;;;0.30;0.30;;;12.40;99.90;;;;;;4404950;32;20094;-78
2023/04/11 10:22:43;;;;;;;0.30;0.30;;;12.60;99.90;;;;;;4404990;32;20116;-78
2023/04/11 10:25:17;;;;;;;0.30;0.30;;;13.00;99.90;;;;;;4393372;32;20102;-77
2023/04/11 10:27:52;;;;;;;0.30;0.30;;;13.00;99.90;;;;;;4404899;32;20592;-77
2023/04/11 10:30:38;;;;;;;0.25;0.25;;;13.30;99.90;;;;;;4402791;32;20125;-77
2023/04/11 10:33:19;;;;;;;0.45;0.45;;;13.60;99.90;;;;;;4390936;32;20069;-77
2023/04/11 10:36:01;;;;;;;;;;;14.00;99.90;;;;;;4404326;32;20101;-77
2023/04/11 10:38:46;;;;;;;0.30;0.30;;;14.00;99.90;;;;;;4402004;32;20400;-77
2023/04/11 10:41:30;;;;;;;0.55;0.55;;;14.00;99.90;;;;;;4390734;32;20075;-78
2023/04/11 10:44:18;;;;;;;0.45;0.45;;;13.90;99.90;;;;;;4399692;32;20121;-77
2023/04/11 10:46:46;;;;;;;0.30;0.30;;;13.50;99.90;;;;;;4391024;32;20510;-76
2023/04/11 10:49:29;;;;;;;0.22;0.22;;;13.40;99.90;;;;;;4402722;32;20142;-78
2023/04/11 10:52:17;;;;;;;0.62;0.62;;;13.40;99.90;;;;;;4400941;32;20110;-76
2023/04/11 10:54:44;;;;;;;0.50;0.50;;;13.10;99.90;;;;;;4401944;32;20092;-76
2023/04/11 10:57:10;;;;;;;0.25;0.25;;;13.00;99.90;;;;;;4403390;32;20081;-75
2023/04/11 10:59:38;;;;;;;0.40;0.40;;;12.80;99.90;;;;;;4402617;32;20102;-76
2023/04/11 11:02:04;;;;;;;0.70;0.70;;;12.50;99.90;;;;;;4398482;32;20089;-77
2023/04/11 11:04:35;;;;;;;0.30;0.30;;;12.20;99.90;;;;;;4402822;32;20094;-76
2023/04/11 11:07:04;;;;;;;0.40;0.40;;;12.00;99.90;;;;;;4402178;32;20078;-76
2023/04/11 11:09:30;;;;;;;0.52;0.52;;;12.20;99.90;;;;;;4403730;32;20090;-76
2023/04/11 11:12:15;;;;;;;0.30;0.30;;;12.50;99.90;;;;;;4400530;32;20792;-78
2023/04/11 11:14:44;;;;;;;6.12;0.88;;;12.80;99.90;;;;;;4390015;32;20529;-77
2023/04/11 11:17:11;;;;;;;0.30;0.30;;;12.90;99.90;;;;;;4402373;32;20545;-76
2023/04/11 11:19:43;;;;;;;0.28;0.28;;;13.30;99.90;;;;;;4402219;32;20130;-76
2023/04/11 11:22:17;;;;;;;0.30;0.30;;;13.80;99.90;;;;;;4402425;32;20070;-77
2023/04/11 11:24:42;;;;;;;0.30;0.30;;;14.00;99.90;;;;;;4398468;32;20067;-76
2023/04/11 11:27:18;;;;;;;0.45;0.30;;;14.50;99.90;;;;;;4402406;32;20480;-77
2023/04/11 11:29:44;;;;;;;0.50;0.50;;;14.70;99.90;;;;;;4403140;32;20069;-76
2023/04/11 11:32:20;;;;;;;12.05;0.95;;;14.80;99.90;;;;;;4397613;32;20442;-76
2023/04/11 11:34:45;;;;;;;0.40;0.40;;;14.60;99.90;;;;;;4403781;32;20065;-76
2023/04/11 11:37:11;;;;;;;0.40;0.40;;;14.60;99.90;;;;;;4403607;32;20500;-77
2023/04/11 11:39:37;;;;;;;0.30;0.30;;;14.70;99.90;;;;;;4400889;32;20065;-76
2023/04/11 11:42:03;;;;;;;0.32;0.32;;;14.40;99.90;;;;;;4399648;32;20102;-76
2023/04/11 11:44:30;;;;;;;0.30;0.30;;;14.10;99.90;;;;;;4398890;32;91419;-76
2023/04/11 11:47:05;;;;;;;0.50;0.50;;;14.50;99.90;;;;;;4403375;32;20078;-76
2023/04/11 11:49:51;;;;;;;0.60;0.50;;;14.70;99.90;;;;;;4401150;32;20083;-76
2023/04/11 11:52:35;;;;;;;3.55;0.82;;;15.40;99.90;;;;;;4386972;32;20113;-77
2023/04/11 11:55:08;;;;;;;0.30;0.30;;;15.40;99.90;;;;;;4387638;32;20143;-77
2023/04/11 11:57:35;;;;;;;0.35;0.30;;;15.20;99.90;;;;;;4403059;32;20070;-76
2023/04/11 12:00:08;;;;;;;0.30;0.30;;;14.80;99.90;;;;;;4399419;32;20085;-77
2023/04/11 12:02:34;;;;;;;0.20;0.20;;;14.20;99.90;;;;;;4401644;32;20546;-76
2023/04/11 12:05:03;;;;;;;0.50;0.50;;;14.20;99.90;;;;;;4400869;32;20069;-76
2023/04/11 12:07:32;;;;;;;0.40;0.40;;;14.90;99.90;;;;;;4401934;32;20074;-76
2023/04/11 12:10:00;;;;;;;0.20;0.20;;;15.40;99.90;;;;;;4402366;32;20141;-76
2023/04/11 12:12:42;;;;;;;0.32;0.32;;;16.10;99.90;;;;;;4402893;32;20062;-76
2023/04/11 12:15:12;;;;;;;0.25;0.25;;;16.10;99.90;;;;;;4402868;32;20097;-77
2023/04/11 12:17:39;;;;;;;0.62;0.62;;;16.00;99.90;;;;;;4401919;32;20074;-75
2023/04/11 12:20:06;;;;;;;0.30;0.30;;;15.90;99.90;;;;;;4406299;32;20066;-75
2023/04/11 12:22:32;;;;;;;0.30;0.30;;;16.40;99.90;;;;;;4399441;32;20407;-75
2023/04/11 12:25:14;;;;;;;0.30;0.30;;;15.80;99.90;;;;;;4402242;32;20089;-79
2023/04/11 12:27:41;;;;;;;0.30;0.30;;;16.10;99.90;;;;;;4401411;32;20118;-76
2023/04/11 12:30:08;;;;;;;0.40;0.40;;;16.80;99.90;;;;;;4399727;32;20103;-76
2023/04/11 12:32:35;;;;;;;0.30;0.30;;;16.60;99.90;;;;;;4398915;32;20082;-76
2023/04/11 12:35:02;;;;;;;0.40;0.40;;;16.10;99.90;;;;;;4399380;32;20116;-77
2023/04/11 12:37:28;;;;;;;0.35;0.35;;;15.90;99.90;;;;;;4402748;32;20065;-77
2023/04/11 12:39:53;;;;;;;0.35;0.35;;;15.90;99.90;;;;;;4401464;32;20069;-77
2023/04/11 12:42:19;;;;;;;0.30;0.30;;;16.10;99.90;;;;;;4399953;32;20118;-78
2023/04/11 12:44:46;;;;;;;0.30;0.30;;;16.30;99.90;;;;;;4400287;32;20521;-77
2023/04/11 12:47:12;;;;;;;1.08;0.30;;;16.40;99.60;;;;;;4400503;32;20078;-76
2023/04/11 12:49:37;;;;;;;0.30;0.30;;;16.80;99.50;;;;;;4402086;32;20534;-77
2023/04/11 12:52:03;;;;;;;0.30;0.30;;;16.90;98.60;;;;;;4401250;32;20070;-77